sensor_id;sensor_type;location;lat;lon;timestamp;P1;durP1;ratioP1;P2;durP2;ratioP2
84163;SDS011;74288;46.872;7.802;2024-01-25T00:01:15;1.27;;;0.60;;
84163;SDS011;74288;46.872;7.802;2024-01-25T00:03:41;1.33;;;0.50;;
84163;SDS011;74288;46.872;7.802;2024-01-25T00:06:07;1.92;;;0.50;;
84163;SDS011;74288;46.872;7.802;2024-01-25T00:08:34;2.42;;;0.70;;
84163;SDS011;74288;46.872;7.802;2024-01-25T00:11:01;1.03;;;0.40;;
84163;SDS011;74288;46.872;7.802;2024-01-25T00:13:27;2.67;;;0.90;;
84163;SDS011;74288;46.872;7.802;2024-01-25T00:15:53;2.85;;;0.70;;
84163;SDS011;74288;46.872;7.802;2024-01-25T00:18:19;2.38;;;0.70;;
84163;SDS011;74288;46.872;7.802;2024-01-25T00:20:45;1.73;;;0.50;;
84163;SDS011;74288;46.872;7.802;2024-01-25T00:23:11;1.45;;;0.50;;
84163;SDS011;74288;46.872;7.802;2024-01-25T00:25:37;1.80;;;0.55;;
84163;SDS011;74288;46.872;7.802;2024-01-25T00:28:03;1.73;;;0.70;;
84163;SDS011;74288;46.872;7.802;2024-01-25T00:30:29;3.35;;;0.70;;
84163;SDS011;74288;46.872;7.802;2024-01-25T00:32:58;0.83;;;0.40;;
84163;SDS011;74288;46.872;7.802;2024-01-25T00:35:24;1.10;;;0.50;;
84163;SDS011;74288;46.872;7.802;2024-01-25T00:37:50;1.77;;;0.60;;
84163;SDS011;74288;46.872;7.802;2024-01-25T00:40:17;1.70;;;0.60;;
84163;SDS011;74288;46.872;7.802;2024-01-25T00:42:44;1.37;;;0.60;;
84163;SDS011;74288;46.872;7.802;2024-01-25T00:45:14;1.15;;;0.50;;
84163;SDS011;74288;46.872;7.802;2024-01-25T00:47:40;1.30;;;0.50;;
84163;SDS011;74288;46.872;7.802;2024-01-25T00:50:06;1.67;;;0.55;;
84163;SDS011;74288;46.872;7.802;2024-01-25T00:52:32;1.25;;;0.50;;
84163;SDS011;74288;46.872;7.802;2024-01-25T00:54:58;0.90;;;0.43;;
84163;SDS011;74288;46.872;7.802;2024-01-25T00:57:24;1.13;;;0.50;;
84163;SDS011;74288;46.872;7.802;2024-01-25T00:59:51;1.30;;;0.50;;
84163;SDS011;74288;46.872;7.802;2024-01-25T01:02:17;1.10;;;0.40;;
84163;SDS011;74288;46.872;7.802;2024-01-25T01:04:43;0.90;;;0.30;;
84163;SDS011;74288;46.872;7.802;2024-01-25T01:07:09;1.20;;;0.50;;
84163;SDS011;74288;46.872;7.802;2024-01-25T01:09:35;1.25;;;0.50;;
84163;SDS011;74288;46.872;7.802;2024-01-25T01:12:01;2.20;;;0.70;;
84163;SDS011;74288;46.872;7.802;2024-01-25T01:14:27;2.55;;;0.73;;
84163;SDS011;74288;46.872;7.802;2024-01-25T01:16:53;2.83;;;0.68;;
84163;SDS011;74288;46.872;7.802;2024-01-25T01:19:20;1.63;;;0.50;;
84163;SDS011;74288;46.872;7.802;2024-01-25T01:21:46;0.90;;;0.50;;
84163;SDS011;74288;46.872;7.802;2024-01-25T01:24:12;1.42;;;0.60;;
84163;SDS011;74288;46.872;7.802;2024-01-25T01:26:38;1.40;;;0.50;;
84163;SDS011;74288;46.872;7.802;2024-01-25T01:29:06;2.27;;;0.87;;
84163;SDS011;74288;46.872;7.802;2024-01-25T01:31:33;2.28;;;1.20;;
84163;SDS011;74288;46.872;7.802;2024-01-25T01:33:59;2.55;;;1.20;;
84163;SDS011;74288;46.872;7.802;2024-01-25T01:36:25;2.60;;;1.20;;
84163;SDS011;74288;46.872;7.802;2024-01-25T01:38:51;1.60;;;0.80;;
84163;SDS011;74288;46.872;7.802;2024-01-25T01:41:17;5.53;;;2.35;;
84163;SDS011;74288;46.872;7.802;2024-01-25T01:43:43;2.75;;;1.13;;
84163;SDS011;74288;46.872;7.802;2024-01-25T01:46:10;1.75;;;0.70;;
84163;SDS011;74288;46.872;7.802;2024-01-25T01:48:38;1.10;;;0.60;;
84163;SDS011;74288;46.872;7.802;2024-01-25T01:51:04;1.50;;;0.60;;
84163;SDS011;74288;46.872;7.802;2024-01-25T01:53:30;2.85;;;0.75;;
84163;SDS011;74288;46.872;7.802;2024-01-25T01:55:58;2.10;;;0.73;;
84163;SDS011;74288;46.872;7.802;2024-01-25T01:58:24;1.88;;;0.60;;
84163;SDS011;74288;46.872;7.802;2024-01-25T02:00:51;1.90;;;0.70;;
84163;SDS011;74288;46.872;7.802;2024-01-25T02:03:18;1.75;;;0.70;;
84163;SDS011;74288;46.872;7.802;2024-01-25T02:05:44;2.40;;;0.90;;
84163;SDS011;74288;46.872;7.802;2024-01-25T02:08:11;1.30;;;0.50;;
84163;SDS011;74288;46.872;7.802;2024-01-25T02:10:37;2.30;;;0.50;;
84163;SDS011;74288;46.872;7.802;2024-01-25T02:13:03;2.40;;;0.60;;
84163;SDS011;74288;46.872;7.802;2024-01-25T02:15:29;0.70;;;0.40;;
84163;SDS011;74288;46.872;7.802;2024-01-25T02:17:55;1.20;;;0.60;;
84163;SDS011;74288;46.872;7.802;2024-01-25T02:20:21;0.97;;;0.40;;
84163;SDS011;74288;46.872;7.802;2024-01-25T02:22:49;1.10;;;0.50;;
84163;SDS011;74288;46.872;7.802;2024-01-25T02:25:14;0.85;;;0.50;;
84163;SDS011;74288;46.872;7.802;2024-01-25T02:27:40;0.98;;;0.40;;
84163;SDS011;74288;46.872;7.802;2024-01-25T02:30:07;1.33;;;0.50;;
84163;SDS011;74288;46.872;7.802;2024-01-25T02:32:33;0.70;;;0.40;;
84163;SDS011;74288;46.872;7.802;2024-01-25T02:34:59;1.55;;;0.45;;
84163;SDS011;74288;46.872;7.802;2024-01-25T02:37:25;1.25;;;0.40;;
84163;SDS011;74288;46.872;7.802;2024-01-25T02:39:51;1.20;;;0.57;;
84163;SDS011;74288;46.872;7.802;2024-01-25T02:42:17;4.70;;;0.60;;
84163;SDS011;74288;46.872;7.802;2024-01-25T02:44:44;1.02;;;0.40;;
84163;SDS011;74288;46.872;7.802;2024-01-25T02:47:10;1.55;;;0.50;;
84163;SDS011;74288;46.872;7.802;2024-01-25T02:49:36;3.50;;;1.13;;
84163;SDS011;74288;46.872;7.802;2024-01-25T02:52:02;1.63;;;0.60;;
84163;SDS011;74288;46.872;7.802;2024-01-25T02:54:28;0.80;;;0.40;;
84163;SDS011;74288;46.872;7.802;2024-01-25T02:56:54;2.17;;;0.43;;
84163;SDS011;74288;46.872;7.802;2024-01-25T02:59:20;0.85;;;0.40;;
84163;SDS011;74288;46.872;7.802;2024-01-25T03:01:46;1.50;;;0.40;;
84163;SDS011;74288;46.872;7.802;2024-01-25T03:04:12;1.17;;;0.50;;
84163;SDS011;74288;46.872;7.802;2024-01-25T03:06:38;1.25;;;0.50;;
84163;SDS011;74288;46.872;7.802;2024-01-25T03:09:04;0.90;;;0.40;;
84163;SDS011;74288;46.872;7.802;2024-01-25T03:11:30;1.27;;;0.60;;
84163;SDS011;74288;46.872;7.802;2024-01-25T03:13:56;1.27;;;0.40;;
84163;SDS011;74288;46.872;7.802;2024-01-25T03:16:22;1.02;;;0.50;;
84163;SDS011;74288;46.872;7.802;2024-01-25T03:18:48;1.10;;;0.40;;
84163;SDS011;74288;46.872;7.802;2024-01-25T03:21:14;0.77;;;0.30;;
84163;SDS011;74288;46.872;7.802;2024-01-25T03:23:40;0.60;;;0.35;;
84163;SDS011;74288;46.872;7.802;2024-01-25T03:26:06;1.25;;;0.45;;
84163;SDS011;74288;46.872;7.802;2024-01-25T03:28:35;1.67;;;0.47;;
84163;SDS011;74288;46.872;7.802;2024-01-25T03:31:03;1.30;;;0.60;;
84163;SDS011;74288;46.872;7.802;2024-01-25T03:33:29;1.10;;;0.50;;
84163;SDS011;74288;46.872;7.802;2024-01-25T03:35:57;0.82;;;0.40;;
84163;SDS011;74288;46.872;7.802;2024-01-25T03:38:23;0.80;;;0.40;;
84163;SDS011;74288;46.872;7.802;2024-01-25T03:40:49;3.35;;;0.50;;
84163;SDS011;74288;46.872;7.802;2024-01-25T03:43:15;2.33;;;0.50;;
84163;SDS011;74288;46.872;7.802;2024-01-25T03:45:41;0.85;;;0.40;;
84163;SDS011;74288;46.872;7.802;2024-01-25T03:48:07;1.77;;;0.40;;
84163;SDS011;74288;46.872;7.802;2024-01-25T03:50:33;8.10;;;3.67;;
84163;SDS011;74288;46.872;7.802;2024-01-25T03:52:59;1.15;;;0.55;;
84163;SDS011;74288;46.872;7.802;2024-01-25T03:55:25;1.30;;;0.50;;
84163;SDS011;74288;46.872;7.802;2024-01-25T03:57:51;2.28;;;0.70;;
84163;SDS011;74288;46.872;7.802;2024-01-25T04:00:17;1.20;;;0.60;;
84163;SDS011;74288;46.872;7.802;2024-01-25T04:02:43;1.13;;;0.50;;
84163;SDS011;74288;46.872;7.802;2024-01-25T04:05:09;2.10;;;0.50;;
84163;SDS011;74288;46.872;7.802;2024-01-25T04:07:35;1.15;;;0.50;;
84163;SDS011;74288;46.872;7.802;2024-01-25T04:10:01;1.37;;;0.60;;
84163;SDS011;74288;46.872;7.802;2024-01-25T04:12:27;1.20;;;0.50;;
84163;SDS011;74288;46.872;7.802;2024-01-25T04:14:53;1.20;;;0.40;;
84163;SDS011;74288;46.872;7.802;2024-01-25T04:17:19;0.75;;;0.40;;
84163;SDS011;74288;46.872;7.802;2024-01-25T04:19:45;0.80;;;0.40;;
84163;SDS011;74288;46.872;7.802;2024-01-25T04:22:11;1.20;;;0.30;;
84163;SDS011;74288;46.872;7.802;2024-01-25T04:24:37;1.50;;;0.40;;
84163;SDS011;74288;46.872;7.802;2024-01-25T04:27:03;1.13;;;0.43;;
84163;SDS011;74288;46.872;7.802;2024-01-25T04:29:29;2.05;;;0.60;;
84163;SDS011;74288;46.872;7.802;2024-01-25T04:31:55;1.42;;;0.50;;
84163;SDS011;74288;46.872;7.802;2024-01-25T04:34:21;2.35;;;0.95;;
84163;SDS011;74288;46.872;7.802;2024-01-25T04:36:46;2.88;;;0.90;;
84163;SDS011;74288;46.872;7.802;2024-01-25T04:39:12;1.90;;;0.75;;
84163;SDS011;74288;46.872;7.802;2024-01-25T04:41:39;2.20;;;0.70;;
84163;SDS011;74288;46.872;7.802;2024-01-25T04:44:05;2.47;;;0.80;;
84163;SDS011;74288;46.872;7.802;2024-01-25T04:46:31;2.15;;;0.70;;
84163;SDS011;74288;46.872;7.802;2024-01-25T04:49:02;1.98;;;0.50;;
84163;SDS011;74288;46.872;7.802;2024-01-25T04:59:09;1.38;;;0.70;;
84163;SDS011;74288;46.872;7.802;2024-01-25T05:01:35;1.83;;;0.40;;
84163;SDS011;74288;46.872;7.802;2024-01-25T05:04:01;1.67;;;0.60;;
84163;SDS011;74288;46.872;7.802;2024-01-25T05:06:28;1.27;;;0.50;;
84163;SDS011;74288;46.872;7.802;2024-01-25T05:08:54;1.93;;;0.60;;
84163;SDS011;74288;46.872;7.802;2024-01-25T05:11:20;1.23;;;0.52;;
84163;SDS011;74288;46.872;7.802;2024-01-25T05:13:46;1.30;;;0.40;;
84163;SDS011;74288;46.872;7.802;2024-01-25T05:16:12;1.23;;;0.50;;
84163;SDS011;74288;46.872;7.802;2024-01-25T05:18:38;3.03;;;0.90;;
84163;SDS011;74288;46.872;7.802;2024-01-25T05:21:04;2.45;;;0.80;;
84163;SDS011;74288;46.872;7.802;2024-01-25T05:23:30;2.17;;;0.90;;
84163;SDS011;74288;46.872;7.802;2024-01-25T05:25:56;3.50;;;1.65;;
84163;SDS011;74288;46.872;7.802;2024-01-25T05:28:22;4.20;;;1.30;;
84163;SDS011;74288;46.872;7.802;2024-01-25T05:30:49;4.13;;;1.52;;
84163;SDS011;74288;46.872;7.802;2024-01-25T05:33:15;4.88;;;1.40;;
84163;SDS011;74288;46.872;7.802;2024-01-25T05:35:41;4.63;;;1.60;;
84163;SDS011;74288;46.872;7.802;2024-01-25T05:38:07;4.93;;;1.15;;
84163;SDS011;74288;46.872;7.802;2024-01-25T05:40:33;3.30;;;1.10;;
84163;SDS011;74288;46.872;7.802;2024-01-25T05:42:59;5.18;;;1.63;;
84163;SDS011;74288;46.872;7.802;2024-01-25T05:48:01;6.05;;;1.40;;
84163;SDS011;74288;46.872;7.802;2024-01-25T06:08:25;5.85;;;1.75;;
84163;SDS011;74288;46.872;7.802;2024-01-25T06:10:51;4.78;;;1.65;;
84163;SDS011;74288;46.872;7.802;2024-01-25T06:16:01;5.80;;;1.83;;
84163;SDS011;74288;46.872;7.802;2024-01-25T06:18:27;9.13;;;2.60;;
84163;SDS011;74288;46.872;7.802;2024-01-25T06:20:53;5.80;;;1.85;;
84163;SDS011;74288;46.872;7.802;2024-01-25T06:23:19;6.57;;;2.20;;
84163;SDS011;74288;46.872;7.802;2024-01-25T06:25:45;6.03;;;2.00;;
84163;SDS011;74288;46.872;7.802;2024-01-25T06:28:11;7.63;;;2.22;;
84163;SDS011;74288;46.872;7.802;2024-01-25T06:30:37;6.50;;;1.92;;
84163;SDS011;74288;46.872;7.802;2024-01-25T06:33:03;6.40;;;2.55;;
84163;SDS011;74288;46.872;7.802;2024-01-25T06:35:29;7.37;;;2.73;;
84163;SDS011;74288;46.872;7.802;2024-01-25T06:37:56;5.72;;;2.45;;
84163;SDS011;74288;46.872;7.802;2024-01-25T06:40:22;5.35;;;2.03;;
84163;SDS011;74288;46.872;7.802;2024-01-25T06:42:48;6.97;;;2.55;;
84163;SDS011;74288;46.872;7.802;2024-01-25T06:45:14;9.03;;;2.90;;
84163;SDS011;74288;46.872;7.802;2024-01-25T06:47:40;12.05;;;3.70;;
84163;SDS011;74288;46.872;7.802;2024-01-25T06:50:06;12.20;;;3.53;;
84163;SDS011;74288;46.872;7.802;2024-01-25T06:52:33;10.75;;;3.30;;
84163;SDS011;74288;46.872;7.802;2024-01-25T06:54:59;8.30;;;3.10;;
84163;SDS011;74288;46.872;7.802;2024-01-25T06:57:24;10.00;;;3.28;;
84163;SDS011;74288;46.872;7.802;2024-01-25T06:59:50;9.13;;;3.28;;
84163;SDS011;74288;46.872;7.802;2024-01-25T07:02:16;9.20;;;2.95;;
84163;SDS011;74288;46.872;7.802;2024-01-25T07:04:42;6.40;;;2.60;;
84163;SDS011;74288;46.872;7.802;2024-01-25T07:07:08;11.23;;;3.92;;
84163;SDS011;74288;46.872;7.802;2024-01-25T07:09:35;10.43;;;3.42;;
84163;SDS011;74288;46.872;7.802;2024-01-25T07:12:00;8.38;;;2.55;;
84163;SDS011;74288;46.872;7.802;2024-01-25T07:14:26;6.33;;;2.47;;
84163;SDS011;74288;46.872;7.802;2024-01-25T07:16:52;6.10;;;2.10;;
84163;SDS011;74288;46.872;7.802;2024-01-25T07:19:18;8.98;;;3.55;;
84163;SDS011;74288;46.872;7.802;2024-01-25T07:21:44;6.67;;;2.70;;
84163;SDS011;74288;46.872;7.802;2024-01-25T07:24:10;4.55;;;1.90;;
84163;SDS011;74288;46.872;7.802;2024-01-25T07:26:36;6.18;;;2.30;;
84163;SDS011;74288;46.872;7.802;2024-01-25T07:29:02;4.28;;;1.92;;
84163;SDS011;74288;46.872;7.802;2024-01-25T07:31:28;4.47;;;1.70;;
84163;SDS011;74288;46.872;7.802;2024-01-25T07:33:54;4.32;;;1.77;;
84163;SDS011;74288;46.872;7.802;2024-01-25T07:36:20;4.43;;;1.80;;
84163;SDS011;74288;46.872;7.802;2024-01-25T07:38:46;6.10;;;2.45;;
84163;SDS011;74288;46.872;7.802;2024-01-25T07:41:13;5.17;;;2.13;;
84163;SDS011;74288;46.872;7.802;2024-01-25T07:43:39;5.38;;;2.10;;
84163;SDS011;74288;46.872;7.802;2024-01-25T07:46:05;5.28;;;2.20;;
84163;SDS011;74288;46.872;7.802;2024-01-25T07:48:32;4.32;;;1.92;;
84163;SDS011;74288;46.872;7.802;2024-01-25T07:50:58;6.93;;;2.30;;
84163;SDS011;74288;46.872;7.802;2024-01-25T07:53:24;5.10;;;1.83;;
84163;SDS011;74288;46.872;7.802;2024-01-25T07:55:49;6.03;;;2.10;;
84163;SDS011;74288;46.872;7.802;2024-01-25T07:58:15;5.10;;;1.90;;
84163;SDS011;74288;46.872;7.802;2024-01-25T08:00:41;6.60;;;2.40;;
84163;SDS011;74288;46.872;7.802;2024-01-25T08:03:08;5.72;;;2.17;;
84163;SDS011;74288;46.872;7.802;2024-01-25T08:05:34;5.80;;;2.10;;
84163;SDS011;74288;46.872;7.802;2024-01-25T08:08:00;4.65;;;1.83;;
84163;SDS011;74288;46.872;7.802;2024-01-25T08:10:26;3.97;;;1.80;;
84163;SDS011;74288;46.872;7.802;2024-01-25T08:12:52;5.55;;;2.08;;
84163;SDS011;74288;46.872;7.802;2024-01-25T08:15:18;11.45;;;4.55;;
84163;SDS011;74288;46.872;7.802;2024-01-25T08:17:44;17.15;;;7.10;;
84163;SDS011;74288;46.872;7.802;2024-01-25T08:20:10;10.13;;;3.97;;
84163;SDS011;74288;46.872;7.802;2024-01-25T08:22:38;12.77;;;5.43;;
84163;SDS011;74288;46.872;7.802;2024-01-25T08:25:04;10.70;;;3.88;;
84163;SDS011;74288;46.872;7.802;2024-01-25T08:27:30;7.13;;;2.72;;
84163;SDS011;74288;46.872;7.802;2024-01-25T08:29:56;8.27;;;2.90;;
84163;SDS011;74288;46.872;7.802;2024-01-25T08:32:22;5.65;;;2.25;;
84163;SDS011;74288;46.872;7.802;2024-01-25T08:34:48;6.15;;;2.63;;
84163;SDS011;74288;46.872;7.802;2024-01-25T08:37:14;6.32;;;2.40;;
84163;SDS011;74288;46.872;7.802;2024-01-25T08:39:40;5.33;;;2.17;;
84163;SDS011;74288;46.872;7.802;2024-01-25T08:42:08;6.45;;;2.60;;
84163;SDS011;74288;46.872;7.802;2024-01-25T08:44:34;8.23;;;2.92;;
84163;SDS011;74288;46.872;7.802;2024-01-25T08:47:00;7.68;;;3.00;;
84163;SDS011;74288;46.872;7.802;2024-01-25T08:49:26;8.90;;;3.03;;
84163;SDS011;74288;46.872;7.802;2024-01-25T08:51:52;8.43;;;3.88;;
84163;SDS011;74288;46.872;7.802;2024-01-25T08:54:18;10.02;;;4.32;;
84163;SDS011;74288;46.872;7.802;2024-01-25T08:56:44;7.82;;;3.50;;
84163;SDS011;74288;46.872;7.802;2024-01-25T08:59:10;7.10;;;3.03;;
84163;SDS011;74288;46.872;7.802;2024-01-25T09:01:36;5.85;;;2.55;;
84163;SDS011;74288;46.872;7.802;2024-01-25T09:04:02;5.25;;;2.40;;
84163;SDS011;74288;46.872;7.802;2024-01-25T09:06:29;7.60;;;3.40;;
84163;SDS011;74288;46.872;7.802;2024-01-25T09:08:55;6.50;;;2.80;;
84163;SDS011;74288;46.872;7.802;2024-01-25T09:11:21;5.93;;;2.15;;
84163;SDS011;74288;46.872;7.802;2024-01-25T09:13:47;5.75;;;2.15;;
84163;SDS011;74288;46.872;7.802;2024-01-25T09:16:13;4.15;;;1.63;;
84163;SDS011;74288;46.872;7.802;2024-01-25T09:18:40;6.50;;;2.00;;
84163;SDS011;74288;46.872;7.802;2024-01-25T09:21:06;5.75;;;2.30;;
84163;SDS011;74288;46.872;7.802;2024-01-25T09:23:32;6.75;;;2.85;;
84163;SDS011;74288;46.872;7.802;2024-01-25T09:25:58;6.60;;;2.80;;
84163;SDS011;74288;46.872;7.802;2024-01-25T09:28:24;6.80;;;2.67;;
84163;SDS011;74288;46.872;7.802;2024-01-25T09:30:50;6.78;;;2.70;;
84163;SDS011;74288;46.872;7.802;2024-01-25T09:33:16;5.97;;;2.30;;
84163;SDS011;74288;46.872;7.802;2024-01-25T09:35:43;6.50;;;2.38;;
84163;SDS011;74288;46.872;7.802;2024-01-25T09:38:11;5.83;;;2.10;;
84163;SDS011;74288;46.872;7.802;2024-01-25T09:40:37;5.43;;;1.92;;
84163;SDS011;74288;46.872;7.802;2024-01-25T09:43:03;6.22;;;2.00;;
84163;SDS011;74288;46.872;7.802;2024-01-25T09:45:30;5.13;;;1.88;;
84163;SDS011;74288;46.872;7.802;2024-01-25T09:47:56;5.28;;;2.10;;
84163;SDS011;74288;46.872;7.802;2024-01-25T09:50:23;5.00;;;1.77;;
84163;SDS011;74288;46.872;7.802;2024-01-25T09:52:54;4.80;;;1.90;;
84163;SDS011;74288;46.872;7.802;2024-01-25T09:55:24;4.15;;;1.60;;
84163;SDS011;74288;46.872;7.802;2024-01-25T09:57:52;3.97;;;1.52;;
84163;SDS011;74288;46.872;7.802;2024-01-25T10:00:19;6.07;;;2.30;;
84163;SDS011;74288;46.872;7.802;2024-01-25T10:02:47;5.10;;;1.87;;
84163;SDS011;74288;46.872;7.802;2024-01-25T10:05:14;5.35;;;1.50;;
84163;SDS011;74288;46.872;7.802;2024-01-25T10:10:16;6.75;;;2.00;;
84163;SDS011;74288;46.872;7.802;2024-01-25T10:12:42;5.43;;;1.90;;
84163;SDS011;74288;46.872;7.802;2024-01-25T10:15:08;5.03;;;2.08;;
84163;SDS011;74288;46.872;7.802;2024-01-25T10:17:34;4.90;;;2.40;;
84163;SDS011;74288;46.872;7.802;2024-01-25T10:20:00;4.75;;;2.10;;
84163;SDS011;74288;46.872;7.802;2024-01-25T10:22:26;5.07;;;2.20;;
84163;SDS011;74288;46.872;7.802;2024-01-25T10:24:52;5.60;;;1.88;;
84163;SDS011;74288;46.872;7.802;2024-01-25T10:27:19;5.90;;;2.53;;
84163;SDS011;74288;46.872;7.802;2024-01-25T10:29:45;3.85;;;1.60;;
84163;SDS011;74288;46.872;7.802;2024-01-25T10:32:11;4.15;;;1.85;;
84163;SDS011;74288;46.872;7.802;2024-01-25T10:34:38;5.03;;;1.70;;
84163;SDS011;74288;46.872;7.802;2024-01-25T10:37:07;3.28;;;1.40;;
84163;SDS011;74288;46.872;7.802;2024-01-25T10:39:33;3.10;;;1.25;;
84163;SDS011;74288;46.872;7.802;2024-01-25T10:41:59;2.20;;;0.90;;
84163;SDS011;74288;46.872;7.802;2024-01-25T10:44:26;11.83;;;1.40;;
84163;SDS011;74288;46.872;7.802;2024-01-25T10:46:52;4.53;;;1.67;;
84163;SDS011;74288;46.872;7.802;2024-01-25T10:49:19;3.40;;;1.40;;
84163;SDS011;74288;46.872;7.802;2024-01-25T10:51:46;3.50;;;1.15;;
84163;SDS011;74288;46.872;7.802;2024-01-25T10:54:12;3.30;;;1.30;;
84163;SDS011;74288;46.872;7.802;2024-01-25T10:56:43;5.07;;;1.60;;
84163;SDS011;74288;46.872;7.802;2024-01-25T10:59:12;3.13;;;1.10;;
84163;SDS011;74288;46.872;7.802;2024-01-25T11:01:42;2.92;;;0.98;;
84163;SDS011;74288;46.872;7.802;2024-01-25T11:04:15;2.95;;;1.10;;
84163;SDS011;74288;46.872;7.802;2024-01-25T11:06:42;4.43;;;1.30;;
84163;SDS011;74288;46.872;7.802;2024-01-25T11:09:08;2.53;;;1.10;;
84163;SDS011;74288;46.872;7.802;2024-01-25T11:11:35;1.92;;;0.70;;
84163;SDS011;74288;46.872;7.802;2024-01-25T11:14:02;1.50;;;0.50;;
84163;SDS011;74288;46.872;7.802;2024-01-25T11:16:28;1.70;;;0.57;;
84163;SDS011;74288;46.872;7.802;2024-01-25T11:18:55;1.60;;;0.80;;
84163;SDS011;74288;46.872;7.802;2024-01-25T11:23:59;2.45;;;0.75;;
84163;SDS011;74288;46.872;7.802;2024-01-25T11:26:25;2.40;;;0.70;;
84163;SDS011;74288;46.872;7.802;2024-01-25T11:28:51;1.70;;;0.60;;
84163;SDS011;74288;46.872;7.802;2024-01-25T11:31:18;1.83;;;0.50;;
84163;SDS011;74288;46.872;7.802;2024-01-25T11:33:44;1.10;;;0.50;;
84163;SDS011;74288;46.872;7.802;2024-01-25T11:36:10;2.00;;;0.90;;
84163;SDS011;74288;46.872;7.802;2024-01-25T11:38:36;2.00;;;0.73;;
84163;SDS011;74288;46.872;7.802;2024-01-25T11:41:02;1.67;;;0.73;;
84163;SDS011;74288;46.872;7.802;2024-01-25T11:43:28;3.20;;;0.90;;
84163;SDS011;74288;46.872;7.802;2024-01-25T11:45:54;1.83;;;0.60;;
84163;SDS011;74288;46.872;7.802;2024-01-25T11:48:20;1.70;;;0.70;;
84163;SDS011;74288;46.872;7.802;2024-01-25T11:50:46;1.67;;;0.80;;
84163;SDS011;74288;46.872;7.802;2024-01-25T11:53:12;1.50;;;0.65;;
84163;SDS011;74288;46.872;7.802;2024-01-25T11:55:38;1.33;;;0.70;;
84163;SDS011;74288;46.872;7.802;2024-01-25T11:58:04;1.88;;;0.60;;
84163;SDS011;74288;46.872;7.802;2024-01-25T12:00:30;2.42;;;0.60;;
84163;SDS011;74288;46.872;7.802;2024-01-25T12:02:56;1.10;;;0.60;;
84163;SDS011;74288;46.872;7.802;2024-01-25T12:05:22;2.25;;;0.57;;
84163;SDS011;74288;46.872;7.802;2024-01-25T12:07:48;2.97;;;0.65;;
84163;SDS011;74288;46.872;7.802;2024-01-25T12:10:17;0.82;;;0.40;;
84163;SDS011;74288;46.872;7.802;2024-01-25T12:12:43;1.00;;;0.43;;
84163;SDS011;74288;46.872;7.802;2024-01-25T12:15:09;1.15;;;0.40;;
84163;SDS011;74288;46.872;7.802;2024-01-25T12:17:36;2.00;;;0.50;;
84163;SDS011;74288;46.872;7.802;2024-01-25T12:20:03;0.90;;;0.50;;
84163;SDS011;74288;46.872;7.802;2024-01-25T12:22:35;0.98;;;0.40;;
84163;SDS011;74288;46.872;7.802;2024-01-25T12:25:01;1.03;;;0.47;;
84163;SDS011;74288;46.872;7.802;2024-01-25T12:27:28;0.77;;;0.40;;
84163;SDS011;74288;46.872;7.802;2024-01-25T12:29:55;1.05;;;0.50;;
84163;SDS011;74288;46.872;7.802;2024-01-25T12:32:22;0.73;;;0.32;;
84163;SDS011;74288;46.872;7.802;2024-01-25T12:34:58;1.97;;;0.60;;
84163;SDS011;74288;46.872;7.802;2024-01-25T12:37:28;1.48;;;0.60;;
84163;SDS011;74288;46.872;7.802;2024-01-25T12:39:54;1.55;;;0.60;;
84163;SDS011;74288;46.872;7.802;2024-01-25T12:42:21;2.05;;;0.60;;
84163;SDS011;74288;46.872;7.802;2024-01-25T12:44:47;3.27;;;0.80;;
84163;SDS011;74288;46.872;7.802;2024-01-25T12:47:13;3.30;;;1.00;;
84163;SDS011;74288;46.872;7.802;2024-01-25T12:49:40;4.95;;;1.10;;
84163;SDS011;74288;46.872;7.802;2024-01-25T12:52:06;5.22;;;1.20;;
84163;SDS011;74288;46.872;7.802;2024-01-25T12:54:32;4.10;;;1.30;;
84163;SDS011;74288;46.872;7.802;2024-01-25T12:56:58;3.27;;;0.90;;
84163;SDS011;74288;46.872;7.802;2024-01-25T12:59:24;3.17;;;0.90;;
84163;SDS011;74288;46.872;7.802;2024-01-25T13:01:50;2.00;;;0.60;;
84163;SDS011;74288;46.872;7.802;2024-01-25T13:04:16;1.95;;;0.60;;
84163;SDS011;74288;46.872;7.802;2024-01-25T13:06:42;1.40;;;0.60;;
84163;SDS011;74288;46.872;7.802;2024-01-25T13:09:08;1.40;;;0.50;;
84163;SDS011;74288;46.872;7.802;2024-01-25T13:11:34;1.17;;;0.40;;
84163;SDS011;74288;46.872;7.802;2024-01-25T13:14:00;1.17;;;0.40;;
84163;SDS011;74288;46.872;7.802;2024-01-25T13:16:26;2.25;;;0.80;;
84163;SDS011;74288;46.872;7.802;2024-01-25T13:18:52;1.55;;;0.50;;
84163;SDS011;74288;46.872;7.802;2024-01-25T13:21:18;1.30;;;0.50;;
84163;SDS011;74288;46.872;7.802;2024-01-25T13:23:44;1.52;;;0.50;;
84163;SDS011;74288;46.872;7.802;2024-01-25T13:26:10;1.40;;;0.50;;
84163;SDS011;74288;46.872;7.802;2024-01-25T13:28:36;1.20;;;0.50;;
84163;SDS011;74288;46.872;7.802;2024-01-25T13:33:38;1.48;;;0.50;;
84163;SDS011;74288;46.872;7.802;2024-01-25T13:36:03;2.00;;;0.80;;
84163;SDS011;74288;46.872;7.802;2024-01-25T13:38:33;1.55;;;0.60;;
84163;SDS011;74288;46.872;7.802;2024-01-25T13:40:59;2.80;;;0.77;;
84163;SDS011;74288;46.872;7.802;2024-01-25T13:43:25;2.03;;;0.60;;
84163;SDS011;74288;46.872;7.802;2024-01-25T13:45:51;3.17;;;0.60;;
84163;SDS011;74288;46.872;7.802;2024-01-25T13:48:17;1.00;;;0.50;;
84163;SDS011;74288;46.872;7.802;2024-01-25T13:50:44;1.27;;;0.50;;
84163;SDS011;74288;46.872;7.802;2024-01-25T13:53:10;4.03;;;1.30;;
84163;SDS011;74288;46.872;7.802;2024-01-25T13:55:36;1.60;;;0.65;;
84163;SDS011;74288;46.872;7.802;2024-01-25T13:58:02;2.80;;;0.90;;
84163;SDS011;74288;46.872;7.802;2024-01-25T14:00:28;4.88;;;1.30;;
84163;SDS011;74288;46.872;7.802;2024-01-25T14:02:54;4.67;;;1.70;;
84163;SDS011;74288;46.872;7.802;2024-01-25T14:05:20;4.32;;;1.67;;
84163;SDS011;74288;46.872;7.802;2024-01-25T14:07:46;3.72;;;1.60;;
84163;SDS011;74288;46.872;7.802;2024-01-25T14:10:12;3.90;;;1.40;;
84163;SDS011;74288;46.872;7.802;2024-01-25T14:12:38;6.07;;;2.30;;
84163;SDS011;74288;46.872;7.802;2024-01-25T14:15:04;5.20;;;1.10;;
84163;SDS011;74288;46.872;7.802;2024-01-25T14:17:30;3.38;;;1.10;;
84163;SDS011;74288;46.872;7.802;2024-01-25T14:19:56;2.63;;;1.00;;
84163;SDS011;74288;46.872;7.802;2024-01-25T14:22:22;3.25;;;1.30;;
84163;SDS011;74288;46.872;7.802;2024-01-25T14:24:48;3.47;;;1.20;;
84163;SDS011;74288;46.872;7.802;2024-01-25T14:27:14;5.15;;;1.50;;
84163;SDS011;74288;46.872;7.802;2024-01-25T14:29:40;5.65;;;1.48;;
84163;SDS011;74288;46.872;7.802;2024-01-25T14:32:06;3.08;;;1.40;;
84163;SDS011;74288;46.872;7.802;2024-01-25T14:34:32;3.67;;;1.40;;
84163;SDS011;74288;46.872;7.802;2024-01-25T14:36:58;4.20;;;1.60;;
84163;SDS011;74288;46.872;7.802;2024-01-25T14:39:24;4.20;;;1.58;;
84163;SDS011;74288;46.872;7.802;2024-01-25T14:41:50;3.73;;;1.50;;
84163;SDS011;74288;46.872;7.802;2024-01-25T14:44:16;6.28;;;2.10;;
84163;SDS011;74288;46.872;7.802;2024-01-25T14:51:50;3.27;;;1.33;;
84163;SDS011;74288;46.872;7.802;2024-01-25T14:56:52;4.63;;;1.90;;
84163;SDS011;74288;46.872;7.802;2024-01-25T14:59:18;4.53;;;1.63;;
84163;SDS011;74288;46.872;7.802;2024-01-25T15:01:47;3.63;;;1.38;;
84163;SDS011;74288;46.872;7.802;2024-01-25T15:04:13;3.53;;;1.33;;
84163;SDS011;74288;46.872;7.802;2024-01-25T15:06:41;3.88;;;1.30;;
84163;SDS011;74288;46.872;7.802;2024-01-25T15:09:08;4.78;;;1.70;;
84163;SDS011;74288;46.872;7.802;2024-01-25T15:11:34;5.47;;;1.95;;
84163;SDS011;74288;46.872;7.802;2024-01-25T15:14:00;5.10;;;1.80;;
84163;SDS011;74288;46.872;7.802;2024-01-25T15:16:26;3.92;;;1.10;;
84163;SDS011;74288;46.872;7.802;2024-01-25T15:18:53;3.53;;;1.35;;
84163;SDS011;74288;46.872;7.802;2024-01-25T15:21:19;5.13;;;1.33;;
84163;SDS011;74288;46.872;7.802;2024-01-25T15:23:45;3.47;;;1.07;;
84163;SDS011;74288;46.872;7.802;2024-01-25T15:26:11;4.32;;;1.20;;
84163;SDS011;74288;46.872;7.802;2024-01-25T15:28:37;2.65;;;1.08;;